sensor_id;sensor_type;location;lat;lon;timestamp;pressure;altitude;pressure_sealevel;temperature;humidity
75972;BME280;64651;47.540;19.088;2023-05-17T00:01:22;99680.16;;;14.13;100.00
75972;BME280;64651;47.540;19.088;2023-05-17T00:06:24;99676.06;;;14.10;100.00
75972;BME280;64651;47.540;19.088;2023-05-17T00:11:27;99688.28;;;14.18;100.00
75972;BME280;64651;47.540;19.088;2023-05-17T00:16:29;99685.53;;;14.18;100.00
75972;BME280;64651;47.540;19.088;2023-05-17T00:21:31;99688.59;;;14.16;100.00
75972;BME280;64651;47.540;19.088;2023-05-17T00:26:34;99686.66;;;14.17;100.00
75972;BME280;64651;47.540;19.088;2023-05-17T00:31:36;99669.69;;;14.10;100.00
75972;BME280;64651;47.540;19.088;2023-05-17T00:36:38;99668.56;;;14.02;100.00
75972;BME280;64651;47.540;19.088;2023-05-17T00:41:41;99666.94;;;14.01;100.00
75972;BME280;64651;47.540;19.088;2023-05-17T00:46:44;99674.56;;;13.96;100.00
75972;BME280;64651;47.540;19.088;2023-05-17T00:51:50;99668.47;;;13.85;100.00
75972;BME280;64651;47.540;19.088;2023-05-17T00:56:53;99669.12;;;13.91;100.00
75972;BME280;64651;47.540;19.088;2023-05-17T01:01:55;99675.06;;;13.67;100.00
75972;BME280;64651;47.540;19.088;2023-05-17T01:06:58;99675.09;;;13.45;100.00
75972;BME280;64651;47.540;19.088;2023-05-17T01:17:18;99690.50;;;13.37;100.00
75972;BME280;64651;47.540;19.088;2023-05-17T01:22:30;99694.38;;;13.36;100.00
75972;BME280;64651;47.540;19.088;2023-05-17T01:27:35;99673.44;;;13.35;100.00
75972;BME280;64651;47.540;19.088;2023-05-17T01:32:41;99681.44;;;13.45;100.00
75972;BME280;64651;47.540;19.088;2023-05-17T01:37:44;99656.91;;;13.44;100.00
75972;BME280;64651;47.540;19.088;2023-05-17T01:42:56;99673.53;;;13.52;100.00
75972;BME280;64651;47.540;19.088;2023-05-17T01:48:16;99662.50;;;13.61;100.00
75972;BME280;64651;47.540;19.088;2023-05-17T01:53:27;99667.41;;;14.03;100.00
75972;BME280;64651;47.540;19.088;2023-05-17T01:58:36;99645.00;;;14.13;100.00
75972;BME280;64651;47.540;19.088;2023-05-17T02:03:40;99651.84;;;14.25;100.00
75972;BME280;64651;47.540;19.088;2023-05-17T02:08:43;99657.37;;;14.25;100.00
75972;BME280;64651;47.540;19.088;2023-05-17T02:13:45;99658.00;;;14.13;100.00
75972;BME280;64651;47.540;19.088;2023-05-17T02:18:47;99664.78;;;13.90;100.00
75972;BME280;64651;47.540;19.088;2023-05-17T02:23:50;99669.47;;;13.89;100.00
75972;BME280;64651;47.540;19.088;2023-05-17T02:28:52;99663.13;;;13.89;100.00
75972;BME280;64651;47.540;19.088;2023-05-17T02:33:54;99677.06;;;13.75;100.00
75972;BME280;64651;47.540;19.088;2023-05-17T02:38:57;99686.16;;;13.75;100.00
75972;BME280;64651;47.540;19.088;2023-05-17T02:43:59;99695.13;;;13.81;100.00
75972;BME280;64651;47.540;19.088;2023-05-17T02:49:02;99706.03;;;13.77;100.00
75972;BME280;64651;47.540;19.088;2023-05-17T02:54:04;99711.22;;;13.79;100.00
75972;BME280;64651;47.540;19.088;2023-05-17T02:59:07;99702.84;;;13.62;100.00
75972;BME280;64651;47.540;19.088;2023-05-17T03:04:09;99706.94;;;13.64;100.00
75972;BME280;64651;47.540;19.088;2023-05-17T03:09:12;99692.44;;;13.59;100.00
75972;BME280;64651;47.540;19.088;2023-05-17T03:14:14;99722.06;;;13.67;100.00
75972;BME280;64651;47.540;19.088;2023-05-17T03:19:17;99704.34;;;13.68;100.00
75972;BME280;64651;47.540;19.088;2023-05-17T03:24:19;99714.00;;;13.79;100.00
75972;BME280;64651;47.540;19.088;2023-05-17T03:29:22;99727.81;;;13.79;100.00
75972;BME280;64651;47.540;19.088;2023-05-17T03:34:24;99710.41;;;13.78;100.00
75972;BME280;64651;47.540;19.088;2023-05-17T03:39:27;99721.59;;;14.04;100.00
75972;BME280;64651;47.540;19.088;2023-05-17T03:44:29;99718.56;;;14.14;100.00
75972;BME280;64651;47.540;19.088;2023-05-17T03:49:32;99724.47;;;14.30;100.00
75972;BME280;64651;47.540;19.088;2023-05-17T03:54:34;99742.03;;;14.34;100.00
75972;BME280;64651;47.540;19.088;2023-05-17T03:59:37;99752.88;;;14.53;100.00
75972;BME280;64651;47.540;19.088;2023-05-17T04:04:39;99764.16;;;14.65;100.00
75972;BME280;64651;47.540;19.088;2023-05-17T04:09:41;99756.03;;;14.69;100.00
75972;BME280;64651;47.540;19.088;2023-05-17T04:14:43;99758.00;;;14.85;100.00
75972;BME280;64651;47.540;19.088;2023-05-17T04:19:46;99748.38;;;14.83;100.00
75972;BME280;64651;47.540;19.088;2023-05-17T04:24:48;99764.53;;;14.89;100.00
75972;BME280;64651;47.540;19.088;2023-05-17T04:29:50;99773.00;;;15.01;100.00
75972;BME280;64651;47.540;19.088;2023-05-17T04:34:53;99778.09;;;15.17;100.00
75972;BME280;64651;47.540;19.088;2023-05-17T04:39:57;99779.22;;;15.33;100.00
75972;BME280;64651;47.540;19.088;2023-05-17T04:45:00;99802.69;;;15.44;100.00
75972;BME280;64651;47.540;19.088;2023-05-17T04:50:02;99811.06;;;15.53;100.00
75972;BME280;64651;47.540;19.088;2023-05-17T04:55:05;99810.22;;;15.69;100.00
75972;BME280;64651;47.540;19.088;2023-05-17T05:00:08;99829.97;;;15.85;100.00
75972;BME280;64651;47.540;19.088;2023-05-17T05:05:11;99825.03;;;15.99;100.00
75972;BME280;64651;47.540;19.088;2023-05-17T05:10:13;99828.25;;;16.18;100.00
75972;BME280;64651;47.540;19.088;2023-05-17T05:15:15;99818.78;;;16.19;100.00
75972;BME280;64651;47.540;19.088;2023-05-17T05:20:17;99840.56;;;16.47;100.00
75972;BME280;64651;47.540;19.088;2023-05-17T05:25:20;99837.62;;;16.52;100.00
75972;BME280;64651;47.540;19.088;2023-05-17T05:30:22;99831.72;;;16.62;100.00
75972;BME280;64651;47.540;19.088;2023-05-17T05:35:24;99843.50;;;16.50;100.00
75972;BME280;64651;47.540;19.088;2023-05-17T05:40:31;99846.94;;;16.94;98.78
75972;BME280;64651;47.540;19.088;2023-05-17T05:45:34;99843.94;;;17.28;96.72
75972;BME280;64651;47.540;19.088;2023-05-17T05:50:36;99865.19;;;17.54;94.48
75972;BME280;64651;47.540;19.088;2023-05-17T05:55:42;99862.00;;;17.84;92.69
75972;BME280;64651;47.540;19.088;2023-05-17T06:00:44;99856.59;;;17.67;92.35
75972;BME280;64651;47.540;19.088;2023-05-17T06:05:46;99861.97;;;18.05;90.56
75972;BME280;64651;47.540;19.088;2023-05-17T06:10:49;99869.53;;;17.84;91.22
75972;BME280;64651;47.540;19.088;2023-05-17T06:15:51;99869.22;;;17.65;92.02
75972;BME280;64651;47.540;19.088;2023-05-17T06:20:54;99875.28;;;17.58;91.95
75972;BME280;64651;47.540;19.088;2023-05-17T06:25:56;99874.31;;;17.33;92.71
75972;BME280;64651;47.540;19.088;2023-05-17T06:30:58;99887.81;;;16.93;94.06
75972;BME280;64651;47.540;19.088;2023-05-17T06:36:00;99889.53;;;16.69;94.87
75972;BME280;64651;47.540;19.088;2023-05-17T06:41:05;99881.56;;;16.50;95.38
75972;BME280;64651;47.540;19.088;2023-05-17T06:46:08;99886.44;;;16.53;95.84
75972;BME280;64651;47.540;19.088;2023-05-17T06:51:19;99900.66;;;16.69;95.58
75972;BME280;64651;47.540;19.088;2023-05-17T06:56:21;99903.22;;;16.82;95.14
75972;BME280;64651;47.540;19.088;2023-05-17T07:01:24;99905.12;;;16.90;94.89
75972;BME280;64651;47.540;19.088;2023-05-17T07:06:26;99912.19;;;16.88;94.92
75972;BME280;64651;47.540;19.088;2023-05-17T07:11:28;99914.81;;;16.84;94.75
75972;BME280;64651;47.540;19.088;2023-05-17T07:16:31;99920.41;;;16.76;95.16
75972;BME280;64651;47.540;19.088;2023-05-17T07:21:33;99932.78;;;16.87;95.05
75972;BME280;64651;47.540;19.088;2023-05-17T07:26:35;99926.09;;;16.79;94.63
75972;BME280;64651;47.540;19.088;2023-05-17T07:31:37;99915.56;;;16.64;95.04
75972;BME280;64651;47.540;19.088;2023-05-17T07:36:40;99925.16;;;16.75;94.87
75972;BME280;64651;47.540;19.088;2023-05-17T07:41:42;99937.53;;;16.86;94.49
75972;BME280;64651;47.540;19.088;2023-05-17T07:46:44;99925.78;;;16.72;94.11
75972;BME280;64651;47.540;19.088;2023-05-17T07:51:46;99926.75;;;16.85;94.20
75972;BME280;64651;47.540;19.088;2023-05-17T07:56:49;99930.53;;;16.80;93.95
75972;BME280;64651;47.540;19.088;2023-05-17T08:01:51;99936.00;;;16.97;94.10
75972;BME280;64651;47.540;19.088;2023-05-17T08:06:53;99951.03;;;16.96;93.57
75972;BME280;64651;47.540;19.088;2023-05-17T08:11:56;99936.16;;;17.01;93.67
75972;BME280;64651;47.540;19.088;2023-05-17T08:16:58;99947.22;;;17.10;93.36
75972;BME280;64651;47.540;19.088;2023-05-17T08:22:01;99966.94;;;16.87;93.55
75972;BME280;64651;47.540;19.088;2023-05-17T08:27:04;99962.59;;;16.60;94.30
75972;BME280;64651;47.540;19.088;2023-05-17T08:32:06;99965.03;;;16.53;95.50
75972;BME280;64651;47.540;19.088;2023-05-17T08:37:09;99966.19;;;16.70;95.73
75972;BME280;64651;47.540;19.088;2023-05-17T08:42:11;99960.28;;;16.80;94.74
75972;BME280;64651;47.540;19.088;2023-05-17T08:47:15;99958.84;;;17.41;93.58
75972;BME280;64651;47.540;19.088;2023-05-17T08:52:31;99960.00;;;17.69;92.30
75972;BME280;64651;47.540;19.088;2023-05-17T08:57:34;99977.78;;;17.18;92.30
75972;BME280;64651;47.540;19.088;2023-05-17T09:02:40;99966.34;;;17.20;92.17
75972;BME280;64651;47.540;19.088;2023-05-17T09:07:44;99962.31;;;17.38;91.87
75972;BME280;64651;47.540;19.088;2023-05-17T09:12:47;99975.09;;;17.68;90.70
75972;BME280;64651;47.540;19.088;2023-05-17T09:17:51;99966.41;;;17.91;90.24
75972;BME280;64651;47.540;19.088;2023-05-17T09:22:54;99951.56;;;18.73;87.75
75972;BME280;64651;47.540;19.088;2023-05-17T09:28:00;99953.22;;;18.86;85.12
75972;BME280;64651;47.540;19.088;2023-05-17T09:33:07;99956.69;;;18.71;85.03
75972;BME280;64651;47.540;19.088;2023-05-17T09:38:11;99962.69;;;19.18;83.74
75972;BME280;64651;47.540;19.088;2023-05-17T09:43:15;99965.59;;;19.58;81.87
75972;BME280;64651;47.540;19.088;2023-05-17T09:48:18;99961.31;;;20.13;79.73
75972;BME280;64651;47.540;19.088;2023-05-17T09:53:31;99976.56;;;19.51;80.64
75972;BME280;64651;47.540;19.088;2023-05-17T09:58:36;99992.97;;;18.83;82.25
75972;BME280;64651;47.540;19.088;2023-05-17T10:03:38;99995.09;;;19.11;82.16
75972;BME280;64651;47.540;19.088;2023-05-17T10:08:43;99995.03;;;19.43;79.98
75972;BME280;64651;47.540;19.088;2023-05-17T10:14:25;99998.38;;;19.13;79.27
75972;BME280;64651;47.540;19.088;2023-05-17T10:19:29;99997.22;;;19.38;78.58
75972;BME280;64651;47.540;19.088;2023-05-17T10:24:34;99999.13;;;20.22;74.81
75972;BME280;64651;47.540;19.088;2023-05-17T10:29:38;99991.94;;;20.93;71.50
75972;BME280;64651;47.540;19.088;2023-05-17T10:34:42;99996.41;;;22.42;66.52
75972;BME280;64651;47.540;19.088;2023-05-17T10:39:47;99998.09;;;22.85;63.65
75972;BME280;64651;47.540;19.088;2023-05-17T10:44:52;99991.97;;;23.97;60.37
75972;BME280;64651;47.540;19.088;2023-05-17T10:49:55;99991.19;;;25.78;55.68
75972;BME280;64651;47.540;19.088;2023-05-17T10:54:59;100006.41;;;23.96;57.28
75972;BME280;64651;47.540;19.088;2023-05-17T11:00:03;100010.19;;;21.97;62.25
75972;BME280;64651;47.540;19.088;2023-05-17T11:05:22;100013.34;;;22.30;61.43
75972;BME280;64651;47.540;19.088;2023-05-17T11:10:25;100013.94;;;21.54;64.56
75972;BME280;64651;47.540;19.088;2023-05-17T11:15:32;100025.59;;;21.56;64.10
75972;BME280;64651;47.540;19.088;2023-05-17T11:20:34;100040.84;;;20.55;67.19
75972;BME280;64651;47.540;19.088;2023-05-17T11:25:38;100028.44;;;20.96;65.20
75972;BME280;64651;47.540;19.088;2023-05-17T11:30:41;100023.13;;;21.07;65.18
75972;BME280;64651;47.540;19.088;2023-05-17T11:35:52;100022.44;;;20.82;65.76
75972;BME280;64651;47.540;19.088;2023-05-17T11:40:56;100025.78;;;21.47;63.60
75972;BME280;64651;47.540;19.088;2023-05-17T11:45:58;100041.53;;;23.37;58.67
75972;BME280;64651;47.540;19.088;2023-05-17T11:51:05;100037.94;;;23.59;57.34
75972;BME280;64651;47.540;19.088;2023-05-17T11:56:07;100048.50;;;21.93;61.26
75972;BME280;64651;47.540;19.088;2023-05-17T12:01:10;100058.19;;;21.32;63.50
75972;BME280;64651;47.540;19.088;2023-05-17T12:06:15;100052.09;;;21.15;64.12
75972;BME280;64651;47.540;19.088;2023-05-17T12:11:19;100061.28;;;20.72;65.92
75972;BME280;64651;47.540;19.088;2023-05-17T12:16:23;100074.25;;;20.00;67.53
75972;BME280;64651;47.540;19.088;2023-05-17T12:21:26;100065.38;;;20.10;68.15
75972;BME280;64651;47.540;19.088;2023-05-17T12:26:28;100063.75;;;19.97;67.74
75972;BME280;64651;47.540;19.088;2023-05-17T12:31:39;100074.22;;;20.24;67.49
75972;BME280;64651;47.540;19.088;2023-05-17T12:36:42;100074.41;;;19.34;70.38
75972;BME280;64651;47.540;19.088;2023-05-17T12:41:46;100079.22;;;19.00;72.08
75972;BME280;64651;47.540;19.088;2023-05-17T12:46:48;100065.66;;;18.78;72.57
75972;BME280;64651;47.540;19.088;2023-05-17T12:52:02;100070.94;;;18.50;73.81
75972;BME280;64651;47.540;19.088;2023-05-17T12:57:10;100090.09;;;18.31;74.58
75972;BME280;64651;47.540;19.088;2023-05-17T13:02:14;100077.00;;;18.52;73.71
75972;BME280;64651;47.540;19.088;2023-05-17T13:07:21;100084.22;;;19.52;70.61
75972;BME280;64651;47.540;19.088;2023-05-17T13:12:27;100094.56;;;19.07;71.13
75972;BME280;64651;47.540;19.088;2023-05-17T13:17:34;100090.28;;;19.21;70.88
75972;BME280;64651;47.540;19.088;2023-05-17T13:24:15;100097.59;;;24.81;52.18
75972;BME280;64651;47.540;19.088;2023-05-17T13:29:17;100097.59;;;24.81;52.18
75972;BME280;64651;47.540;19.088;2023-05-17T13:34:32;100096.56;;;23.83;53.89
75972;BME280;64651;47.540;19.088;2023-05-17T13:39:34;100085.00;;;23.89;53.21
75972;BME280;64651;47.540;19.088;2023-05-17T13:44:37;100073.22;;;24.06;53.06
75972;BME280;64651;47.540;19.088;2023-05-17T13:49:40;100074.50;;;23.85;53.14
75972;BME280;64651;47.540;19.088;2023-05-17T13:54:42;100076.94;;;24.13;52.35
75972;BME280;64651;47.540;19.088;2023-05-17T13:59:44;100085.31;;;22.42;57.02
75972;BME280;64651;47.540;19.088;2023-05-17T14:04:47;100097.72;;;23.18;55.21
75972;BME280;64651;47.540;19.088;2023-05-17T14:09:49;100074.50;;;23.85;52.86
75972;BME280;64651;47.540;19.088;2023-05-17T14:14:51;100089.75;;;23.62;52.17
75972;BME280;64651;47.540;19.088;2023-05-17T14:19:54;100112.31;;;23.04;54.63
75972;BME280;64651;47.540;19.088;2023-05-17T14:24:56;100116.00;;;21.72;57.46
75972;BME280;64651;47.540;19.088;2023-05-17T14:29:58;100131.00;;;21.64;57.90
75972;BME280;64651;47.540;19.088;2023-05-17T14:35:02;100112.09;;;20.61;60.00
75972;BME280;64651;47.540;19.088;2023-05-17T14:40:05;100140.84;;;19.53;63.63
75972;BME280;64651;47.540;19.088;2023-05-17T14:45:08;100143.91;;;19.72;62.88
75972;BME280;64651;47.540;19.088;2023-05-17T14:50:10;100139.75;;;19.78;62.27
75972;BME280;64651;47.540;19.088;2023-05-17T14:55:13;100176.06;;;18.41;66.61
75972;BME280;64651;47.540;19.088;2023-05-17T15:00:17;100157.16;;;18.76;66.15
75972;BME280;64651;47.540;19.088;2023-05-17T15:05:20;100149.19;;;20.22;61.49
75972;BME280;64651;47.540;19.088;2023-05-17T15:10:23;100157.53;;;19.73;62.63
75972;BME280;64651;47.540;19.088;2023-05-17T15:15:25;100162.53;;;18.81;64.46
75972;BME280;64651;47.540;19.088;2023-05-17T15:20:28;100189.53;;;18.01;68.14
75972;BME280;64651;47.540;19.088;2023-05-17T15:25:31;100188.91;;;17.23;70.92
75972;BME280;64651;47.540;19.088;2023-05-17T15:30:34;100190.66;;;17.54;70.25
75972;BME280;64651;47.540;19.088;2023-05-17T15:35:39;100203.16;;;16.96;72.34
75972;BME280;64651;47.540;19.088;2023-05-17T15:40:42;100203.34;;;16.26;75.09
75972;BME280;64651;47.540;19.088;2023-05-17T15:45:45;100203.16;;;16.13;75.82
75972;BME280;64651;47.540;19.088;2023-05-17T15:50:48;100198.84;;;15.68;77.36
75972;BME280;64651;47.540;19.088;2023-05-17T15:55:50;100194.41;;;15.89;76.37
75972;BME280;64651;47.540;19.088;2023-05-17T16:00:53;100206.56;;;15.26;78.42
75972;BME280;64651;47.540;19.088;2023-05-17T16:05:55;100237.19;;;15.21;78.78
75972;BME280;64651;47.540;19.088;2023-05-17T16:10:58;100217.25;;;14.75;79.92
75972;BME280;64651;47.540;19.088;2023-05-17T16:16:03;100216.16;;;14.84;79.82
75972;BME280;64651;47.540;19.088;2023-05-17T16:21:05;100209.28;;;14.32;81.87
75972;BME280;64651;47.540;19.088;2023-05-17T16:26:08;100226.31;;;14.26;82.30
75972;BME280;64651;47.540;19.088;2023-05-17T16:31:11;100232.66;;;14.12;82.86
75972;BME280;64651;47.540;19.088;2023-05-17T16:36:13;100248.62;;;14.02;83.84
75972;BME280;64651;47.540;19.088;2023-05-17T16:41:15;100254.91;;;13.61;85.35
75972;BME280;64651;47.540;19.088;2023-05-17T16:46:17;100268.72;;;13.61;85.68
75972;BME280;64651;47.540;19.088;2023-05-17T16:51:22;100255.13;;;13.32;86.48
75972;BME280;64651;47.540;19.088;2023-05-17T16:56:25;100264.78;;;13.16;87.49
75972;BME280;64651;47.540;19.088;2023-05-17T17:01:27;100263.87;;;13.21;87.27
75972;BME280;64651;47.540;19.088;2023-05-17T17:06:30;100272.25;;;13.16;87.78
75972;BME280;64651;47.540;19.088;2023-05-17T17:11:32;100268.03;;;13.18;87.30
75972;BME280;64651;47.540;19.088;2023-05-17T17:16:34;100302.75;;;13.24;87.08
75972;BME280;64651;47.540;19.088;2023-05-17T17:21:36;100302.97;;;13.09;87.79
75972;BME280;64651;47.540;19.088;2023-05-17T17:26:39;100296.91;;;12.88;88.25
75972;BME280;64651;47.540;19.088;2023-05-17T17:31:41;100287.13;;;12.77;88.84
75972;BME280;64651;47.540;19.088;2023-05-17T17:36:44;100303.59;;;12.64;89.54
75972;BME280;64651;47.540;19.088;2023-05-17T17:41:46;100309.47;;;12.33;91.19
75972;BME280;64651;47.540;19.088;2023-05-17T17:46:48;100310.84;;;12.36;91.29
75972;BME280;64651;47.540;19.088;2023-05-17T17:51:51;100300.03;;;12.39;90.49
75972;BME280;64651;47.540;19.088;2023-05-17T17:56:54;100322.34;;;12.43;90.55
75972;BME280;64651;47.540;19.088;2023-05-17T18:01:56;100305.03;;;12.37;90.50
75972;BME280;64651;47.540;19.088;2023-05-17T18:07:00;100306.56;;;12.48;89.97
75972;BME280;64651;47.540;19.088;2023-05-17T18:12:03;100324.75;;;12.49;89.68
75972;BME280;64651;47.540;19.088;2023-05-17T18:17:06;100317.66;;;12.43;89.42
75972;BME280;64651;47.540;19.088;2023-05-17T18:22:09;100324.22;;;12.47;89.39
75972;BME280;64651;47.540;19.088;2023-05-17T18:27:11;100323.81;;;12.59;88.56
75972;BME280;64651;47.540;19.088;2023-05-17T18:32:16;100329.59;;;12.34;89.01
75972;BME280;64651;47.540;19.088;2023-05-17T18:37:18;100324.28;;;12.18;89.05
75972;BME280;64651;47.540;19.088;2023-05-17T18:42:21;100339.53;;;12.35;88.60
75972;BME280;64651;47.540;19.088;2023-05-17T18:47:25;100329.97;;;12.27;88.00
75972;BME280;64651;47.540;19.088;2023-05-17T18:52:28;100348.09;;;12.33;87.57
75972;BME280;64651;47.540;19.088;2023-05-17T18:57:31;100358.13;;;12.24;87.59
75972;BME280;64651;47.540;19.088;2023-05-17T19:02:33;100335.09;;;12.10;87.86
75972;BME280;64651;47.540;19.088;2023-05-17T19:07:35;100342.63;;;12.04;87.85
75972;BME280;64651;47.540;19.088;2023-05-17T19:12:38;100356.06;;;12.11;87.69
75972;BME280;64651;47.540;19.088;2023-05-17T19:17:40;100357.62;;;11.93;88.08
75972;BME280;64651;47.540;19.088;2023-05-17T19:22:43;100380.94;;;12.06;87.82
75972;BME280;64651;47.540;19.088;2023-05-17T19:27:45;100380.41;;;12.04;87.74
75972;BME280;64651;47.540;19.088;2023-05-17T19:32:48;100374.88;;;12.04;87.37
75972;BME280;64651;47.540;19.088;2023-05-17T19:37:50;100407.91;;;12.09;87.11
75972;BME280;64651;47.540;19.088;2023-05-17T19:42:53;100395.88;;;12.00;87.30
75972;BME280;64651;47.540;19.088;2023-05-17T19:47:55;100399.31;;;12.15;86.92
75972;BME280;64651;47.540;19.088;2023-05-17T19:52:57;100413.50;;;12.04;87.10
75972;BME280;64651;47.540;19.088;2023-05-17T19:58:00;100420.37;;;12.06;86.92
75972;BME280;64651;47.540;19.088;2023-05-17T20:03:05;100433.94;;;11.98;86.93
75972;BME280;64651;47.540;19.088;2023-05-17T20:08:10;100427.31;;;11.99;86.87
75972;BME280;64651;47.540;19.088;2023-05-17T20:13:13;100428.19;;;11.94;86.96
75972;BME280;64651;47.540;19.088;2023-05-17T20:18:15;100434.31;;;11.86;86.84
75972;BME280;64651;47.540;19.088;2023-05-17T20:23:17;100436.16;;;11.96;85.96
75972;BME280;64651;47.540;19.088;2023-05-17T20:28:20;100439.34;;;12.13;85.46
75972;BME280;64651;47.540;19.088;2023-05-17T20:33:22;100439.03;;;12.19;85.28
75972;BME280;64651;47.540;19.088;2023-05-17T20:38:27;100441.06;;;12.04;85.58
75972;BME280;64651;47.540;19.088;2023-05-17T20:43:29;100436.91;;;12.06;85.96
75972;BME280;64651;47.540;19.088;2023-05-17T20:48:32;100441.66;;;11.96;86.40
75972;BME280;64651;47.540;19.088;2023-05-17T20:53:35;100442.16;;;12.03;85.99
75972;BME280;64651;47.540;19.088;2023-05-17T20:58:38;100452.69;;;11.96;86.13
75972;BME280;64651;47.540;19.088;2023-05-17T21:03:40;100466.44;;;12.06;86.02
75972;BME280;64651;47.540;19.088;2023-05-17T21:08:44;100469.09;;;12.16;85.70
75972;BME280;64651;47.540;19.088;2023-05-17T21:13:47;100479.31;;;12.15;85.68
75972;BME280;64651;47.540;19.088;2023-05-17T21:18:50;100478.34;;;12.01;85.67
75972;BME280;64651;47.540;19.088;2023-05-17T21:23:52;100487.91;;;12.09;85.79
75972;BME280;64651;47.540;19.088;2023-05-17T21:28:54;100479.56;;;12.14;85.63
75972;BME280;64651;47.540;19.088;2023-05-17T21:33:57;100475.22;;;12.08;85.47
75972;BME280;64651;47.540;19.088;2023-05-17T21:38:59;100487.91;;;12.09;85.52
75972;BME280;64651;47.540;19.088;2023-05-17T21:44:01;100488.50;;;12.06;85.77
75972;BME280;64651;47.540;19.088;2023-05-17T21:49:04;100487.38;;;12.07;85.84
75972;BME280;64651;47.540;19.088;2023-05-17T21:54:06;100491.53;;;12.04;85.58
75972;BME280;64651;47.540;19.088;2023-05-17T21:59:09;100484.87;;;12.10;85.47
75972;BME280;64651;47.540;19.088;2023-05-17T22:04:11;100494.19;;;12.19;85.40
75972;BME280;64651;47.540;19.088;2023-05-17T22:09:13;100485.69;;;12.11;85.20
75972;BME280;64651;47.540;19.088;2023-05-17T22:14:15;100497.78;;;12.15;85.15
75972;BME280;64651;47.540;19.088;2023-05-17T22:19:18;100497.00;;;12.09;84.91
75972;BME280;64651;47.540;19.088;2023-05-17T22:24:24;100498.88;;;12.19;84.81
75972;BME280;64651;47.540;19.088;2023-05-17T22:29:26;100515.16;;;12.15;84.97
75972;BME280;64651;47.540;19.088;2023-05-17T22:34:28;100513.59;;;12.04;84.73
75972;BME280;64651;47.540;19.088;2023-05-17T22:39:30;100528.25;;;12.00;84.69
75972;BME280;64651;47.540;19.088;2023-05-17T22:44:34;100527.53;;;11.79;85.06
75972;BME280;64651;47.540;19.088;2023-05-17T22:49:36;100532.16;;;11.94;84.64
75972;BME280;64651;47.540;19.088;2023-05-17T22:54:39;100527.22;;;11.86;85.00
75972;BME280;64651;47.540;19.088;2023-05-17T22:59:44;100520.41;;;11.68;85.42
75972;BME280;64651;47.540;19.088;2023-05-17T23:04:46;100521.78;;;11.65;85.69
75972;BME280;64651;47.540;19.088;2023-05-17T23:09:49;100524.03;;;11.53;86.15
75972;BME280;64651;47.540;19.088;2023-05-17T23:14:51;100542.19;;;11.59;86.59
75972;BME280;64651;47.540;19.088;2023-05-17T23:19:53;100534.81;;;11.50;87.08
75972;BME280;64651;47.540;19.088;2023-05-17T23:24:57;100552.19;;;11.50;87.58
75972;BME280;64651;47.540;19.088;2023-05-17T23:29:59;100543.88;;;11.55;87.46
75972;BME280;64651;47.540;19.088;2023-05-17T23:35:03;100557.97;;;11.49;87.89
75972;BME280;64651;47.540;19.088;2023-05-17T23:40:06;100553.84;;;11.51;88.97
75972;BME280;64651;47.540;19.088;2023-05-17T23:45:10;100554.41;;;11.43;90.50
75972;BME280;64651;47.540;19.088;2023-05-17T23:50:12;100557.16;;;11.43;92.51
75972;BME280;64651;47.540;19.088;2023-05-17T23:55:14;100562.13;;;11.36;92.94
